sensor_id;sensor_type;location;lat;lon;timestamp;pressure;altitude;pressure_sealevel;temperature
41710;BMP280;59402;48.396;-4.472;2022-08-24T00:02:10;101161.47;;;19.91
41710;BMP280;59402;48.396;-4.472;2022-08-24T00:04:36;101148.38;;;19.85
41710;BMP280;59402;48.396;-4.472;2022-08-24T00:07:03;101148.22;;;19.86
41710;BMP280;59402;48.396;-4.472;2022-08-24T00:09:30;101143.19;;;19.85
41710;BMP280;59402;48.396;-4.472;2022-08-24T00:11:56;101138.81;;;19.85
41710;BMP280;59402;48.396;-4.472;2022-08-24T00:14:22;101143.72;;;19.81
41710;BMP280;59402;48.396;-4.472;2022-08-24T00:16:47;101137.72;;;19.80
41710;BMP280;59402;48.396;-4.472;2022-08-24T00:19:13;101143.72;;;19.81
41710;BMP280;59402;48.396;-4.472;2022-08-24T00:21:39;101140.06;;;19.89
41710;BMP280;59402;48.396;-4.472;2022-08-24T00:24:05;101135.22;;;19.86
41710;BMP280;59402;48.396;-4.472;2022-08-24T00:26:30;101134.16;;;19.73
41710;BMP280;59402;48.396;-4.472;2022-08-24T00:28:57;101139.25;;;19.67
41710;BMP280;59402;48.396;-4.472;2022-08-24T00:31:23;101136.06;;;19.57
41710;BMP280;59402;48.396;-4.472;2022-08-24T00:33:49;101130.13;;;19.48
41710;BMP280;59402;48.396;-4.472;2022-08-24T00:36:15;101131.44;;;19.45
41710;BMP280;59402;48.396;-4.472;2022-08-24T00:38:42;101131.44;;;19.45
41710;BMP280;59402;48.396;-4.472;2022-08-24T00:41:07;101123.81;;;19.43
41710;BMP280;59402;48.396;-4.472;2022-08-24T00:43:33;101118.97;;;19.40
41710;BMP280;59402;48.396;-4.472;2022-08-24T00:46:19;101123.47;;;19.46
41710;BMP280;59402;48.396;-4.472;2022-08-24T00:48:48;101129.00;;;19.43
41710;BMP280;59402;48.396;-4.472;2022-08-24T00:51:19;101125.31;;;19.38
41710;BMP280;59402;48.396;-4.472;2022-08-24T00:53:53;101118.03;;;19.33
41710;BMP280;59402;48.396;-4.472;2022-08-24T00:56:31;101117.06;;;19.34
41710;BMP280;59402;48.396;-4.472;2022-08-24T00:59:02;101112.84;;;19.33
41710;BMP280;59402;48.396;-4.472;2022-08-24T01:01:30;101104.06;;;19.34
41710;BMP280;59402;48.396;-4.472;2022-08-24T01:03:58;101098.88;;;19.34
41710;BMP280;59402;48.396;-4.472;2022-08-24T01:06:25;101099.88;;;19.33
41710;BMP280;59402;48.396;-4.472;2022-08-24T01:08:51;101099.56;;;19.28
41710;BMP280;59402;48.396;-4.472;2022-08-24T01:11:19;101100.84;;;19.32
41710;BMP280;59402;48.396;-4.472;2022-08-24T01:13:47;101102.00;;;19.30
41710;BMP280;59402;48.396;-4.472;2022-08-24T01:16:15;101102.28;;;19.35
41710;BMP280;59402;48.396;-4.472;2022-08-24T01:19:02;101096.81;;;19.30
41710;BMP280;59402;48.396;-4.472;2022-08-24T01:22:09;101094.38;;;19.28
41710;BMP280;59402;48.396;-4.472;2022-08-24T01:24:36;101090.97;;;19.28
41710;BMP280;59402;48.396;-4.472;2022-08-24T01:27:02;101090.84;;;19.21
41710;BMP280;59402;48.396;-4.472;2022-08-24T01:29:29;101093.81;;;19.18
41710;BMP280;59402;48.396;-4.472;2022-08-24T01:31:56;101083.56;;;19.17
41710;BMP280;59402;48.396;-4.472;2022-08-24T01:34:22;101081.16;;;19.15
41710;BMP280;59402;48.396;-4.472;2022-08-24T01:36:52;101084.09;;;19.13
41710;BMP280;59402;48.396;-4.472;2022-08-24T01:39:39;101078.91;;;19.13
41710;BMP280;59402;48.396;-4.472;2022-08-24T01:42:05;101079.53;;;19.14
41710;BMP280;59402;48.396;-4.472;2022-08-24T01:44:33;101074.34;;;19.14
41710;BMP280;59402;48.396;-4.472;2022-08-24T01:47:00;101082.75;;;19.24
41710;BMP280;59402;48.396;-4.472;2022-08-24T01:49:28;101085.13;;;19.26
41710;BMP280;59402;48.396;-4.472;2022-08-24T01:51:55;101082.75;;;19.24
41710;BMP280;59402;48.396;-4.472;2022-08-24T01:54:21;101083.66;;;19.31
41710;BMP280;59402;48.396;-4.472;2022-08-24T01:56:47;101083.28;;;19.34
41710;BMP280;59402;48.396;-4.472;2022-08-24T01:59:13;101080.53;;;19.36
41710;BMP280;59402;48.396;-4.472;2022-08-24T02:01:45;101086.69;;;19.35
41710;BMP280;59402;48.396;-4.472;2022-08-24T02:04:13;101082.50;;;19.34
41710;BMP280;59402;48.396;-4.472;2022-08-24T02:06:39;101080.00;;;19.40
41710;BMP280;59402;48.396;-4.472;2022-08-24T02:09:07;101087.34;;;19.37
41710;BMP280;59402;48.396;-4.472;2022-08-24T02:11:33;101090.28;;;19.34
41710;BMP280;59402;48.396;-4.472;2022-08-24T02:14:00;101097.59;;;19.30
41710;BMP280;59402;48.396;-4.472;2022-08-24T02:16:26;101093.13;;;19.24
41710;BMP280;59402;48.396;-4.472;2022-08-24T02:18:52;101100.28;;;19.22
41710;BMP280;59402;48.396;-4.472;2022-08-24T02:21:18;101090.53;;;19.24
41710;BMP280;59402;48.396;-4.472;2022-08-24T02:23:45;101086.47;;;19.22
41710;BMP280;59402;48.396;-4.472;2022-08-24T02:26:11;101084.34;;;19.25
41710;BMP280;59402;48.396;-4.472;2022-08-24T02:28:38;101083.41;;;19.18
41710;BMP280;59402;48.396;-4.472;2022-08-24T02:31:05;101088.13;;;19.15
41710;BMP280;59402;48.396;-4.472;2022-08-24T02:33:33;101081.78;;;19.17
41710;BMP280;59402;48.396;-4.472;2022-08-24T02:36:00;101085.06;;;19.12
41710;BMP280;59402;48.396;-4.472;2022-08-24T02:38:26;101081.81;;;19.10
41710;BMP280;59402;48.396;-4.472;2022-08-24T02:40:51;101084.25;;;19.11
41710;BMP280;59402;48.396;-4.472;2022-08-24T02:43:17;101087.50;;;19.13
41710;BMP280;59402;48.396;-4.472;2022-08-24T02:45:45;101079.88;;;19.12
41710;BMP280;59402;48.396;-4.472;2022-08-24T02:48:12;101073.72;;;19.13
41710;BMP280;59402;48.396;-4.472;2022-08-24T02:50:43;101080.34;;;19.15
41710;BMP280;59402;48.396;-4.472;2022-08-24T02:53:11;101076.94;;;19.14
41710;BMP280;59402;48.396;-4.472;2022-08-24T02:55:39;101073.84;;;19.19
41710;BMP280;59402;48.396;-4.472;2022-08-24T02:58:07;101079.38;;;19.16
41710;BMP280;59402;48.396;-4.472;2022-08-24T03:00:34;101074.00;;;19.17
41710;BMP280;59402;48.396;-4.472;2022-08-24T03:03:01;101078.38;;;19.17
41710;BMP280;59402;48.396;-4.472;2022-08-24T03:05:27;101072.72;;;19.13
41710;BMP280;59402;48.396;-4.472;2022-08-24T03:07:54;101073.56;;;19.14
41710;BMP280;59402;48.396;-4.472;2022-08-24T03:10:20;101076.03;;;19.08
41710;BMP280;59402;48.396;-4.472;2022-08-24T03:12:46;101073.44;;;19.08
41710;BMP280;59402;48.396;-4.472;2022-08-24T03:15:12;101072.28;;;19.10
41710;BMP280;59402;48.396;-4.472;2022-08-24T03:17:39;101073.88;;;19.11
41710;BMP280;59402;48.396;-4.472;2022-08-24T03:20:08;101074.50;;;19.13
41710;BMP280;59402;48.396;-4.472;2022-08-24T03:22:36;101077.28;;;19.12
41710;BMP280;59402;48.396;-4.472;2022-08-24T03:25:03;101073.06;;;19.11
41710;BMP280;59402;48.396;-4.472;2022-08-24T03:27:29;101073.06;;;19.11
41710;BMP280;59402;48.396;-4.472;2022-08-24T03:29:54;101074.38;;;19.07
41710;BMP280;59402;48.396;-4.472;2022-08-24T03:32:20;101069.56;;;19.04
41710;BMP280;59402;48.396;-4.472;2022-08-24T03:34:46;101069.72;;;19.02
41710;BMP280;59402;48.396;-4.472;2022-08-24T03:37:11;101069.56;;;19.04
41710;BMP280;59402;48.396;-4.472;2022-08-24T03:39:37;101066.75;;;19.05
41710;BMP280;59402;48.396;-4.472;2022-08-24T03:42:03;101072.94;;;19.04
41710;BMP280;59402;48.396;-4.472;2022-08-24T03:44:29;101065.00;;;19.06
41710;BMP280;59402;48.396;-4.472;2022-08-24T03:46:55;101068.72;;;19.03
41710;BMP280;59402;48.396;-4.472;2022-08-24T03:49:22;101072.66;;;18.99
41710;BMP280;59402;48.396;-4.472;2022-08-24T03:51:48;101069.72;;;19.02
41710;BMP280;59402;48.396;-4.472;2022-08-24T03:54:17;101069.25;;;18.99
41710;BMP280;59402;48.396;-4.472;2022-08-24T03:56:44;101063.09;;;19.00
41710;BMP280;59402;48.396;-4.472;2022-08-24T03:59:11;101065.50;;;19.01
41710;BMP280;59402;48.396;-4.472;2022-08-24T04:01:41;101064.38;;;19.04
41710;BMP280;59402;48.396;-4.472;2022-08-24T04:04:07;101070.50;;;19.03
41710;BMP280;59402;48.396;-4.472;2022-08-24T04:06:34;101063.38;;;19.05
41710;BMP280;59402;48.396;-4.472;2022-08-24T04:09:00;101059.63;;;19.07
41710;BMP280;59402;48.396;-4.472;2022-08-24T04:11:28;101057.22;;;19.06
41710;BMP280;59402;48.396;-4.472;2022-08-24T04:13:56;101064.69;;;19.01
41710;BMP280;59402;48.396;-4.472;2022-08-24T04:16:24;101064.53;;;19.02
41710;BMP280;59402;48.396;-4.472;2022-08-24T04:18:58;101059.19;;;19.04
41710;BMP280;59402;48.396;-4.472;2022-08-24T04:21:26;101057.69;;;19.01
41710;BMP280;59402;48.396;-4.472;2022-08-24T04:23:52;101049.75;;;19.03
41710;BMP280;59402;48.396;-4.472;2022-08-24T04:26:20;101053.34;;;19.02
41710;BMP280;59402;48.396;-4.472;2022-08-24T04:28:46;101047.97;;;19.03
41710;BMP280;59402;48.396;-4.472;2022-08-24T04:31:12;101053.66;;;18.99
41710;BMP280;59402;48.396;-4.472;2022-08-24T04:33:43;101046.53;;;19.01
41710;BMP280;59402;48.396;-4.472;2022-08-24T04:36:10;101054.97;;;18.95
41710;BMP280;59402;48.396;-4.472;2022-08-24T04:38:39;101054.34;;;18.93
41710;BMP280;59402;48.396;-4.472;2022-08-24T04:41:37;101046.88;;;18.90
41710;BMP280;59402;48.396;-4.472;2022-08-24T04:44:03;101041.69;;;18.90
41710;BMP280;59402;48.396;-4.472;2022-08-24T04:46:28;101044.94;;;18.92
41710;BMP280;59402;48.396;-4.472;2022-08-24T04:48:54;101049.31;;;18.91
41710;BMP280;59402;48.396;-4.472;2022-08-24T04:51:21;101046.56;;;18.93
41710;BMP280;59402;48.396;-4.472;2022-08-24T04:53:47;101051.91;;;18.91
41710;BMP280;59402;48.396;-4.472;2022-08-24T04:56:19;101053.22;;;18.87
41710;BMP280;59402;48.396;-4.472;2022-08-24T04:58:47;101053.56;;;18.84
41710;BMP280;59402;48.396;-4.472;2022-08-24T05:01:17;101053.88;;;18.89
41710;BMP280;59402;48.396;-4.472;2022-08-24T05:03:46;101048.84;;;18.88
41710;BMP280;59402;48.396;-4.472;2022-08-24T05:06:13;101052.41;;;18.87
41710;BMP280;59402;48.396;-4.472;2022-08-24T05:08:40;101051.91;;;18.91
41710;BMP280;59402;48.396;-4.472;2022-08-24T05:11:06;101056.47;;;18.89
41710;BMP280;59402;48.396;-4.472;2022-08-24T05:13:33;101050.13;;;18.92
41710;BMP280;59402;48.396;-4.472;2022-08-24T05:15:59;101048.66;;;18.89
41710;BMP280;59402;48.396;-4.472;2022-08-24T05:18:25;101050.63;;;18.87
41710;BMP280;59402;48.396;-4.472;2022-08-24T05:20:54;101053.38;;;18.86
41710;BMP280;59402;48.396;-4.472;2022-08-24T05:23:20;101052.41;;;18.87
41710;BMP280;59402;48.396;-4.472;2022-08-24T05:25:46;101051.59;;;18.86
41710;BMP280;59402;48.396;-4.472;2022-08-24T05:28:12;101047.56;;;18.84
41710;BMP280;59402;48.396;-4.472;2022-08-24T05:30:38;101043.00;;;18.86
41710;BMP280;59402;48.396;-4.472;2022-08-24T05:33:03;101044.63;;;18.87
41710;BMP280;59402;48.396;-4.472;2022-08-24T05:35:29;101043.31;;;18.91
41710;BMP280;59402;48.396;-4.472;2022-08-24T05:37:55;101047.53;;;18.92
41710;BMP280;59402;48.396;-4.472;2022-08-24T05:40:23;101045.56;;;18.94
41710;BMP280;59402;48.396;-4.472;2022-08-24T05:42:53;101042.78;;;19.03
41710;BMP280;59402;48.396;-4.472;2022-08-24T05:45:18;101050.06;;;19.08
41710;BMP280;59402;48.396;-4.472;2022-08-24T05:47:44;101054.09;;;19.10
41710;BMP280;59402;48.396;-4.472;2022-08-24T05:50:35;101053.28;;;19.10
41710;BMP280;59402;48.396;-4.472;2022-08-24T05:53:01;101046.13;;;19.12
41710;BMP280;59402;48.396;-4.472;2022-08-24T05:55:28;101055.59;;;19.05
41710;BMP280;59402;48.396;-4.472;2022-08-24T05:57:55;101057.16;;;19.13
41710;BMP280;59402;48.396;-4.472;2022-08-24T06:00:22;101054.56;;;19.13
41710;BMP280;59402;48.396;-4.472;2022-08-24T06:02:50;101052.66;;;19.08
41710;BMP280;59402;48.396;-4.472;2022-08-24T06:05:20;101061.69;;;19.12
41710;BMP280;59402;48.396;-4.472;2022-08-24T06:07:46;101057.16;;;19.13
41710;BMP280;59402;48.396;-4.472;2022-08-24T06:10:12;101063.44;;;19.19
41710;BMP280;59402;48.396;-4.472;2022-08-24T06:12:38;101073.19;;;19.17
41710;BMP280;59402;48.396;-4.472;2022-08-24T06:15:03;101058.78;;;19.14
41710;BMP280;59402;48.396;-4.472;2022-08-24T06:17:29;101065.56;;;19.15
41710;BMP280;59402;48.396;-4.472;2022-08-24T06:19:55;101072.50;;;19.23
41710;BMP280;59402;48.396;-4.472;2022-08-24T06:22:21;101075.91;;;19.23
41710;BMP280;59402;48.396;-4.472;2022-08-24T06:24:48;101075.88;;;19.31
41710;BMP280;59402;48.396;-4.472;2022-08-24T06:27:32;101083.28;;;19.34
41710;BMP280;59402;48.396;-4.472;2022-08-24T06:30:06;101078.47;;;19.31
41710;BMP280;59402;48.396;-4.472;2022-08-24T06:32:43;101090.75;;;19.37
41710;BMP280;59402;48.396;-4.472;2022-08-24T06:35:13;101074.13;;;19.46
41710;BMP280;59402;48.396;-4.472;2022-08-24T06:37:39;101075.22;;;19.51
41710;BMP280;59402;48.396;-4.472;2022-08-24T06:40:05;101076.47;;;19.55
41710;BMP280;59402;48.396;-4.472;2022-08-24T06:42:33;101077.19;;;19.49
41710;BMP280;59402;48.396;-4.472;2022-08-24T06:44:58;101074.25;;;19.52
41710;BMP280;59402;48.396;-4.472;2022-08-24T06:47:24;101073.94;;;19.70
41710;BMP280;59402;48.396;-4.472;2022-08-24T06:49:57;101079.59;;;19.73
41710;BMP280;59402;48.396;-4.472;2022-08-24T06:52:25;101083.97;;;19.73
41710;BMP280;59402;48.396;-4.472;2022-08-24T06:54:51;101081.03;;;19.76
41710;BMP280;59402;48.396;-4.472;2022-08-24T06:57:17;101087.53;;;19.80
41710;BMP280;59402;48.396;-4.472;2022-08-24T06:59:43;101094.34;;;19.81
41710;BMP280;59402;48.396;-4.472;2022-08-24T07:02:09;101096.94;;;19.81
41710;BMP280;59402;48.396;-4.472;2022-08-24T07:04:37;101100.63;;;19.86
41710;BMP280;59402;48.396;-4.472;2022-08-24T07:07:21;101106.47;;;19.88
41710;BMP280;59402;48.396;-4.472;2022-08-24T07:09:48;101104.72;;;19.81
41710;BMP280;59402;48.396;-4.472;2022-08-24T07:12:13;101105.19;;;19.84
41710;BMP280;59402;48.396;-4.472;2022-08-24T07:14:39;101104.66;;;19.88
41710;BMP280;59402;48.396;-4.472;2022-08-24T07:17:05;101110.59;;;19.97
41710;BMP280;59402;48.396;-4.472;2022-08-24T07:19:31;101111.41;;;19.97
41710;BMP280;59402;48.396;-4.472;2022-08-24T07:21:58;101110.81;;;20.10
41710;BMP280;59402;48.396;-4.472;2022-08-24T07:24:25;101119.06;;;20.13
41710;BMP280;59402;48.396;-4.472;2022-08-24T07:26:50;101121.31;;;20.16
41710;BMP280;59402;48.396;-4.472;2022-08-24T07:29:17;101118.19;;;20.20
41710;BMP280;59402;48.396;-4.472;2022-08-24T07:31:45;101123.22;;;20.22
41710;BMP280;59402;48.396;-4.472;2022-08-24T07:34:33;101114.88;;;20.26
41710;BMP280;59402;48.396;-4.472;2022-08-24T07:36:59;101128.88;;;20.40
41710;BMP280;59402;48.396;-4.472;2022-08-24T07:39:26;101130.94;;;20.44
41710;BMP280;59402;48.396;-4.472;2022-08-24T07:41:52;101125.03;;;20.50
41710;BMP280;59402;48.396;-4.472;2022-08-24T07:44:18;101122.88;;;20.53
41710;BMP280;59402;48.396;-4.472;2022-08-24T07:46:44;101128.53;;;20.71
41710;BMP280;59402;48.396;-4.472;2022-08-24T07:49:11;101136.44;;;20.78
41710;BMP280;59402;48.396;-4.472;2022-08-24T07:51:39;101131.94;;;20.86
41710;BMP280;59402;48.396;-4.472;2022-08-24T07:54:05;101140.53;;;21.01
41710;BMP280;59402;48.396;-4.472;2022-08-24T07:56:37;101131.25;;;21.27
41710;BMP280;59402;48.396;-4.472;2022-08-24T07:59:02;101137.50;;;21.32
41710;BMP280;59402;48.396;-4.472;2022-08-24T08:01:28;101137.25;;;21.42
41710;BMP280;59402;48.396;-4.472;2022-08-24T08:03:55;101144.97;;;21.35
41710;BMP280;59402;48.396;-4.472;2022-08-24T08:06:21;101144.06;;;21.43
41710;BMP280;59402;48.396;-4.472;2022-08-24T08:08:49;101146.50;;;21.65
41710;BMP280;59402;48.396;-4.472;2022-08-24T08:11:15;101143.22;;;21.77
41710;BMP280;59402;48.396;-4.472;2022-08-24T08:13:41;101151.47;;;21.81
41710;BMP280;59402;48.396;-4.472;2022-08-24T08:16:07;101150.38;;;21.90
41710;BMP280;59402;48.396;-4.472;2022-08-24T08:18:33;101151.22;;;21.96
41710;BMP280;59402;48.396;-4.472;2022-08-24T08:21:04;101159.28;;;21.81
41710;BMP280;59402;48.396;-4.472;2022-08-24T08:23:30;101161.03;;;21.74
41710;BMP280;59402;48.396;-4.472;2022-08-24T08:26:25;101153.66;;;21.77
41710;BMP280;59402;48.396;-4.472;2022-08-24T08:29:03;101145.69;;;21.85
41710;BMP280;59402;48.396;-4.472;2022-08-24T08:31:31;101144.75;;;21.92
41710;BMP280;59402;48.396;-4.472;2022-08-24T08:33:57;101152.41;;;21.73
41710;BMP280;59402;48.396;-4.472;2022-08-24T08:36:23;101141.53;;;21.70
41710;BMP280;59402;48.396;-4.472;2022-08-24T08:38:49;101133.59;;;21.78
41710;BMP280;59402;48.396;-4.472;2022-08-24T08:44:06;101134.63;;;21.77
41710;BMP280;59402;48.396;-4.472;2022-08-24T08:47:12;101136.84;;;21.80
41710;BMP280;59402;48.396;-4.472;2022-08-24T08:55:35;101139.16;;;22.16
41710;BMP280;59402;48.396;-4.472;2022-08-24T09:03:49;101145.72;;;22.66
41710;BMP280;59402;48.396;-4.472;2022-08-24T09:09:40;101142.56;;;22.77
41710;BMP280;59402;48.396;-4.472;2022-08-24T09:17:56;101152.88;;;22.85
41710;BMP280;59402;48.396;-4.472;2022-08-24T09:20:39;101149.16;;;22.73
41710;BMP280;59402;48.396;-4.472;2022-08-24T09:26:02;101160.69;;;23.25
41710;BMP280;59402;48.396;-4.472;2022-08-24T09:28:43;101160.59;;;22.99
41710;BMP280;59402;48.396;-4.472;2022-08-24T09:31:34;101152.31;;;23.42
41710;BMP280;59402;48.396;-4.472;2022-08-24T09:34:12;101166.38;;;23.41
41710;BMP280;59402;48.396;-4.472;2022-08-24T09:54:23;101147.69;;;22.31
41710;BMP280;59402;48.396;-4.472;2022-08-24T09:57:24;101144.41;;;22.50
41710;BMP280;59402;48.396;-4.472;2022-08-24T10:05:54;101153.25;;;22.82
41710;BMP280;59402;48.396;-4.472;2022-08-24T10:11:03;101162.63;;;23.04
41710;BMP280;59402;48.396;-4.472;2022-08-24T10:38:22;101174.94;;;24.14
41710;BMP280;59402;48.396;-4.472;2022-08-24T10:46:52;101176.59;;;24.34
41710;BMP280;59402;48.396;-4.472;2022-08-24T10:52:28;101159.28;;;24.33
41710;BMP280;59402;48.396;-4.472;2022-08-24T10:55:32;101155.31;;;25.00
41710;BMP280;59402;48.396;-4.472;2022-08-24T11:00:42;101157.22;;;25.23
41710;BMP280;59402;48.396;-4.472;2022-08-24T11:03:17;101161.75;;;25.41
41710;BMP280;59402;48.396;-4.472;2022-08-24T11:05:48;101153.66;;;25.55
41710;BMP280;59402;48.396;-4.472;2022-08-24T11:08:24;101151.38;;;25.89
41710;BMP280;59402;48.396;-4.472;2022-08-24T11:11:11;101149.50;;;25.72
41710;BMP280;59402;48.396;-4.472;2022-08-24T11:13:53;101129.28;;;26.03
41710;BMP280;59402;48.396;-4.472;2022-08-24T11:16:25;101152.56;;;26.23
41710;BMP280;59402;48.396;-4.472;2022-08-24T11:18:55;100912.84;;;25.94
41710;BMP280;59402;48.396;-4.472;2022-08-24T11:24:01;99627.44;;;26.07
41710;BMP280;59402;48.396;-4.472;2022-08-24T11:26:27;99619.84;;;25.79
41710;BMP280;59402;48.396;-4.472;2022-08-24T11:28:58;99624.81;;;25.54
41710;BMP280;59402;48.396;-4.472;2022-08-24T11:31:34;99624.22;;;25.52
41710;BMP280;59402;48.396;-4.472;2022-08-24T11:34:06;99630.94;;;25.44
41710;BMP280;59402;48.396;-4.472;2022-08-24T11:36:34;99644.66;;;25.29
41710;BMP280;59402;48.396;-4.472;2022-08-24T11:42:06;99615.47;;;25.63
41710;BMP280;59402;48.396;-4.472;2022-08-24T11:44:39;99647.81;;;25.31
41710;BMP280;59402;48.396;-4.472;2022-08-24T11:47:32;99644.94;;;25.75
41710;BMP280;59402;48.396;-4.472;2022-08-24T11:50:08;99694.53;;;26.03
41710;BMP280;59402;48.396;-4.472;2022-08-24T11:53:02;99792.34;;;26.24
41710;BMP280;59402;48.396;-4.472;2022-08-24T11:55:38;99919.63;;;25.89
41710;BMP280;59402;48.396;-4.472;2022-08-24T11:58:21;99993.31;;;26.25
41710;BMP280;59402;48.396;-4.472;2022-08-24T12:01:28;100215.13;;;26.49
41710;BMP280;59402;48.396;-4.472;2022-08-24T12:14:43;100674.34;;;28.23
41710;BMP280;59402;48.396;-4.472;2022-08-24T12:17:20;100653.78;;;28.73
41710;BMP280;59402;48.396;-4.472;2022-08-24T12:22:37;100705.25;;;29.18
41710;BMP280;59402;48.396;-4.472;2022-08-24T12:25:04;100689.97;;;29.67
41710;BMP280;59402;48.396;-4.472;2022-08-24T12:27:52;100706.59;;;29.89
41710;BMP280;59402;48.396;-4.472;2022-08-24T12:30:18;100719.63;;;30.01
41710;BMP280;59402;48.396;-4.472;2022-08-24T12:32:54;100713.84;;;30.04
41710;BMP280;59402;48.396;-4.472;2022-08-24T12:35:38;100736.38;;;30.16
41710;BMP280;59402;48.396;-4.472;2022-08-24T12:38:33;100737.75;;;29.92
41710;BMP280;59402;48.396;-4.472;2022-08-24T12:41:18;100746.09;;;30.37
41710;BMP280;59402;48.396;-4.472;2022-08-24T12:44:09;100745.44;;;29.94
41710;BMP280;59402;48.396;-4.472;2022-08-24T12:46:37;100743.66;;;30.61
41710;BMP280;59402;48.396;-4.472;2022-08-24T12:49:15;100747.53;;;31.31
41710;BMP280;59402;48.396;-4.472;2022-08-24T12:52:01;100765.09;;;31.51
41710;BMP280;59402;48.396;-4.472;2022-08-24T13:00:19;100777.41;;;31.31
41710;BMP280;59402;48.396;-4.472;2022-08-24T13:02:56;100785.03;;;30.46
41710;BMP280;59402;48.396;-4.472;2022-08-24T13:05:24;100770.75;;;29.95
41710;BMP280;59402;48.396;-4.472;2022-08-24T13:08:36;100764.03;;;29.82
41710;BMP280;59402;48.396;-4.472;2022-08-24T13:17:05;100770.59;;;29.59
41710;BMP280;59402;48.396;-4.472;2022-08-24T13:21:59;100776.44;;;31.47
41710;BMP280;59402;48.396;-4.472;2022-08-24T13:27:44;100783.78;;;31.30
41710;BMP280;59402;48.396;-4.472;2022-08-24T13:29:52;100779.94;;;31.57
41710;BMP280;59402;48.396;-4.472;2022-08-24T13:32:38;100767.13;;;32.30
41710;BMP280;59402;48.396;-4.472;2022-08-24T13:35:35;100768.97;;;32.29
41710;BMP280;59402;48.396;-4.472;2022-08-24T13:43:53;100780.38;;;32.79
41710;BMP280;59402;48.396;-4.472;2022-08-24T13:46:35;100780.38;;;32.94
41710;BMP280;59402;48.396;-4.472;2022-08-24T13:52:06;100788.22;;;33.33
41710;BMP280;59402;48.396;-4.472;2022-08-24T13:54:42;100791.31;;;33.60
41710;BMP280;59402;48.396;-4.472;2022-08-24T14:02:41;100761.88;;;32.50
41710;BMP280;59402;48.396;-4.472;2022-08-24T14:05:29;100745.38;;;31.93
41710;BMP280;59402;48.396;-4.472;2022-08-24T14:10:41;100717.22;;;29.99
41710;BMP280;59402;48.396;-4.472;2022-08-24T14:16:39;100673.22;;;28.19
41710;BMP280;59402;48.396;-4.472;2022-08-24T14:24:48;100479.47;;;26.76
41710;BMP280;59402;48.396;-4.472;2022-08-24T14:41:02;100446.75;;;26.28
41710;BMP280;59402;48.396;-4.472;2022-08-24T14:46:29;100297.81;;;25.69
41710;BMP280;59402;48.396;-4.472;2022-08-24T14:51:50;100244.50;;;25.91
41710;BMP280;59402;48.396;-4.472;2022-08-24T15:00:10;100264.00;;;26.50
41710;BMP280;59402;48.396;-4.472;2022-08-24T15:03:11;100487.03;;;28.99
41710;BMP280;59402;48.396;-4.472;2022-08-24T15:06:02;100699.97;;;31.46
41710;BMP280;59402;48.396;-4.472;2022-08-24T15:08:36;100728.28;;;29.96
41710;BMP280;59402;48.396;-4.472;2022-08-24T15:11:12;100687.56;;;28.44
41710;BMP280;59402;48.396;-4.472;2022-08-24T15:14:00;100594.31;;;27.75
41710;BMP280;59402;48.396;-4.472;2022-08-24T15:16:50;100566.91;;;26.77
41710;BMP280;59402;48.396;-4.472;2022-08-24T15:21:57;100491.72;;;27.26
41710;BMP280;59402;48.396;-4.472;2022-08-24T15:29:25;100738.16;;;30.68
41710;BMP280;59402;48.396;-4.472;2022-08-24T15:34:36;100759.56;;;30.35
41710;BMP280;59402;48.396;-4.472;2022-08-24T15:37:03;100739.69;;;29.33
41710;BMP280;59402;48.396;-4.472;2022-08-24T15:39:28;100701.44;;;28.56
41710;BMP280;59402;48.396;-4.472;2022-08-24T15:41:54;100610.84;;;27.43
41710;BMP280;59402;48.396;-4.472;2022-08-24T15:44:22;100595.28;;;27.41
41710;BMP280;59402;48.396;-4.472;2022-08-24T15:46:53;100666.66;;;28.05
41710;BMP280;59402;48.396;-4.472;2022-08-24T15:49:22;100606.00;;;26.85
41710;BMP280;59402;48.396;-4.472;2022-08-24T15:55:00;100362.06;;;25.94
41710;BMP280;59402;48.396;-4.472;2022-08-24T15:57:29;100356.47;;;25.90
41710;BMP280;59402;48.396;-4.472;2022-08-24T16:00:15;100380.50;;;26.10
41710;BMP280;59402;48.396;-4.472;2022-08-24T16:03:19;100381.97;;;26.17
41710;BMP280;59402;48.396;-4.472;2022-08-24T16:05:44;100401.28;;;26.51
41710;BMP280;59402;48.396;-4.472;2022-08-24T16:08:11;100383.56;;;26.07
41710;BMP280;59402;48.396;-4.472;2022-08-24T16:10:46;100347.28;;;25.43
41710;BMP280;59402;48.396;-4.472;2022-08-24T16:18:25;100244.78;;;24.82
41710;BMP280;59402;48.396;-4.472;2022-08-24T16:20:51;100144.16;;;24.78
41710;BMP280;59402;48.396;-4.472;2022-08-24T16:23:28;100094.69;;;24.32
41710;BMP280;59402;48.396;-4.472;2022-08-24T16:28:46;99967.06;;;24.00
41710;BMP280;59402;48.396;-4.472;2022-08-24T16:31:42;99897.38;;;24.16
41710;BMP280;59402;48.396;-4.472;2022-08-24T16:34:16;99851.13;;;24.17
41710;BMP280;59402;48.396;-4.472;2022-08-24T16:36:42;99807.81;;;24.09
41710;BMP280;59402;48.396;-4.472;2022-08-24T16:39:09;99781.75;;;24.26
41710;BMP280;59402;48.396;-4.472;2022-08-24T16:41:35;99766.75;;;24.49
41710;BMP280;59402;48.396;-4.472;2022-08-24T16:44:05;99791.03;;;24.61
41710;BMP280;59402;48.396;-4.472;2022-08-24T16:46:33;99780.16;;;24.25
41710;BMP280;59402;48.396;-4.472;2022-08-24T16:48:58;99769.28;;;24.44
41710;BMP280;59402;48.396;-4.472;2022-08-24T16:51:24;99777.09;;;24.16
41710;BMP280;59402;48.396;-4.472;2022-08-24T16:53:49;99770.47;;;24.53
41710;BMP280;59402;48.396;-4.472;2022-08-24T16:56:15;99765.78;;;24.55
41710;BMP280;59402;48.396;-4.472;2022-08-24T16:58:40;99790.53;;;24.64
41710;BMP280;59402;48.396;-4.472;2022-08-24T17:01:06;99795.94;;;24.57
41710;BMP280;59402;48.396;-4.472;2022-08-24T17:03:32;99780.81;;;24.20
41710;BMP280;59402;48.396;-4.472;2022-08-24T17:05:58;99773.25;;;24.07
41710;BMP280;59402;48.396;-4.472;2022-08-24T17:08:25;99737.16;;;23.66
41710;BMP280;59402;48.396;-4.472;2022-08-24T17:10:51;99622.63;;;23.90
41710;BMP280;59402;48.396;-4.472;2022-08-24T17:13:19;99616.25;;;24.14
41710;BMP280;59402;48.396;-4.472;2022-08-24T17:15:45;99628.00;;;24.28
41710;BMP280;59402;48.396;-4.472;2022-08-24T17:18:11;99618.13;;;24.18
41710;BMP280;59402;48.396;-4.472;2022-08-24T17:20:37;99617.28;;;23.69
41710;BMP280;59402;48.396;-4.472;2022-08-24T17:23:03;99580.78;;;23.46
41710;BMP280;59402;48.396;-4.472;2022-08-24T17:25:28;99575.13;;;23.10